Time;durP1;ratioP1;P1;durP2;ratioP2;P2;SDS_P1;SDS_P2;PMS_P1;PMS_P2;Temp;Humidity;BMP_temperature;BMP_pressure;BME280_temperature;BME280_humidity;BME280_pressure;Samples;Min_cycle;Max_cycle;Signal;HPM_P1;HPM_P2
2020/01/20 00:00:51;;;;;;;35.7;18.55;;;;;;;-1.07;91.37988;97434.33;;;;
2020/01/20 00:02:16;;;;;;;35.7;18.55;;;;;;;-1.07;91.37988;97434.33;;;;
2020/01/20 00:03:17;;;;;;;35.7;18.55;;;;;;;-1.07;91.37988;97434.33;;;;
2020/01/20 00:04:18;;;;;;;32.8;17.7;;;;;;;-0.92;91.68164;97434.12;;;;
2020/01/20 00:05:25;;;;;;;32.8;17.7;;;;;;;-0.92;91.68164;97434.12;;;;
2020/01/20 00:06:26;;;;;;;32.8;17.7;;;;;;;-0.92;91.68164;97434.12;;;;
2020/01/20 00:07:26;;;;;;;32.8;17.7;;;;;;;-0.92;91.68164;97434.12;;;;
2020/01/20 00:08:27;;;;;;;32.8;17.7;;;;;;;-0.92;91.68164;97434.12;;;;
2020/01/20 00:09:30;;;;;;;32.8;17.7;;;;;;;-0.92;91.68164;97434.12;;;;
2020/01/20 00:10:30;;;;;;;32.8;17.7;;;;;;;-0.92;91.68164;97434.12;;;;
2020/01/20 00:11:31;;;;;;;32.8;17.7;;;;;;;-0.92;91.68164;97434.12;;;;
2020/01/20 00:12:32;;;;;;;32.8;17.7;;;;;;;-0.92;91.68164;97434.12;;;;
2020/01/20 00:13:33;;;;;;;32.8;17.7;;;;;;;-0.92;91.68164;97434.12;;;;
2020/01/20 00:14:33;;;;;;;26.1;14.2;;;;;;;-0.89;91.72949;97440.51;;;;
2020/01/20 00:15:34;;;;;;;26.1;14.2;;;;;;;-0.89;91.72949;97440.51;;;;
2020/01/20 00:16:34;;;;;;;26.1;14.2;;;;;;;-0.89;91.72949;97440.51;;;;
2020/01/20 00:17:35;;;;;;;26.1;14.2;;;;;;;-0.89;91.72949;97440.51;;;;
2020/01/20 00:18:35;;;;;;;26.1;14.2;;;;;;;-0.89;91.72949;97440.51;;;;
2020/01/20 00:19:36;;;;;;;26.1;14.2;;;;;;;-0.89;91.72949;97440.51;;;;
2020/01/20 00:20:36;;;;;;;26.1;14.2;;;;;;;-0.89;91.72949;97440.51;;;;
2020/01/20 00:21:37;;;;;;;26.1;14.2;;;;;;;-0.89;91.72949;97440.51;;;;
2020/01/20 00:22:37;;;;;;;26.1;14.2;;;;;;;-0.89;91.72949;97440.51;;;;
2020/01/20 00:23:37;;;;;;;26.1;14.2;;;;;;;-0.89;91.72949;97440.51;;;;
2020/01/20 00:24:39;;;;;;;26.1;14.2;;;;;;;-0.89;91.72949;97440.51;;;;
2020/01/20 00:25:39;;;;;;;21.75;13;;;;;;;-0.96;91.64258;97452.52;;;;
2020/01/20 00:26:40;;;;;;;21.75;13;;;;;;;-0.96;91.64258;97452.52;;;;
2020/01/20 00:27:40;;;;;;;21.75;13;;;;;;;-0.96;91.64258;97452.52;;;;
2020/01/20 00:28:40;;;;;;;21.75;13;;;;;;;-0.96;91.64258;97452.52;;;;
2020/01/20 00:29:41;;;;;;;21.75;13;;;;;;;-0.96;91.64258;97452.52;;;;
2020/01/20 00:30:41;;;;;;;21.75;13;;;;;;;-0.96;91.64258;97452.52;;;;
2020/01/20 00:31:46;;;;;;;21.75;13;;;;;;;-0.96;91.64258;97452.52;;;;
2020/01/20 00:32:47;;;;;;;21.75;13;;;;;;;-0.96;91.64258;97452.52;;;;
2020/01/20 00:33:47;;;;;;;21.75;13;;;;;;;-0.96;91.64258;97452.52;;;;
2020/01/20 00:34:48;;;;;;;21.75;13;;;;;;;-0.96;91.64258;97452.52;;;;
2020/01/20 00:35:48;;;;;;;24.55;13.5;;;;;;;-1.19;91.80078;97462.16;;;;
2020/01/20 00:36:49;;;;;;;24.55;13.5;;;;;;;-1.19;91.80078;97462.16;;;;
2020/01/20 00:37:50;;;;;;;24.55;13.5;;;;;;;-1.19;91.80078;97462.16;;;;
2020/01/20 00:38:50;;;;;;;24.55;13.5;;;;;;;-1.19;91.80078;97462.16;;;;
2020/01/20 00:39:51;;;;;;;24.55;13.5;;;;;;;-1.19;91.80078;97462.16;;;;
2020/01/20 00:40:51;;;;;;;24.55;13.5;;;;;;;-1.19;91.80078;97462.16;;;;
2020/01/20 00:41:52;;;;;;;24.55;13.5;;;;;;;-1.19;91.80078;97462.16;;;;
2020/01/20 00:42:52;;;;;;;24.55;13.5;;;;;;;-1.19;91.80078;97462.16;;;;
2020/01/20 00:43:53;;;;;;;24.55;13.5;;;;;;;-1.19;91.80078;97462.16;;;;
2020/01/20 00:44:53;;;;;;;24.55;13.5;;;;;;;-1.19;91.80078;97462.16;;;;
2020/01/20 00:45:54;;;;;;;24.55;13.5;;;;;;;-1.19;91.80078;97462.16;;;;
2020/01/20 00:46:54;;;;;;;25.9;14.1;;;;;;;-1.15;92.18164;97481.76;;;;
2020/01/20 00:47:55;;;;;;;25.9;14.1;;;;;;;-1.15;92.18164;97481.76;;;;
2020/01/20 00:48:55;;;;;;;25.9;14.1;;;;;;;-1.15;92.18164;97481.76;;;;
2020/01/20 00:49:55;;;;;;;25.9;14.1;;;;;;;-1.15;92.18164;97481.76;;;;
2020/01/20 00:50:56;;;;;;;25.9;14.1;;;;;;;-1.15;92.18164;97481.76;;;;
2020/01/20 00:51:57;;;;;;;25.9;14.1;;;;;;;-1.15;92.18164;97481.76;;;;
2020/01/20 00:52:57;;;;;;;25.9;14.1;;;;;;;-1.15;92.18164;97481.76;;;;
2020/01/20 00:53:57;;;;;;;25.9;14.1;;;;;;;-1.15;92.18164;97481.76;;;;
2020/01/20 00:54:58;;;;;;;25.9;14.1;;;;;;;-1.15;92.18164;97481.76;;;;
2020/01/20 00:55:59;;;;;;;25.9;14.1;;;;;;;-1.15;92.18164;97481.76;;;;
2020/01/20 00:56:59;;;;;;;29.15;15.95;;;;;;;-1.03;92.13574;97507.37;;;;
2020/01/20 00:58:00;;;;;;;29.15;15.95;;;;;;;-1.03;92.13574;97507.37;;;;
2020/01/20 00:59:00;;;;;;;29.15;15.95;;;;;;;-1.03;92.13574;97507.37;;;;
2020/01/20 01:00:01;;;;;;;29.15;15.95;;;;;;;-1.03;92.13574;97507.37;;;;
2020/01/20 01:01:01;;;;;;;29.15;15.95;;;;;;;-1.03;92.13574;97507.37;;;;
2020/01/20 01:02:17;;;;;;;29.15;15.95;;;;;;;-1.03;92.13574;97507.37;;;;
2020/01/20 01:07:15;;;;;;;29.15;15.95;;;;;;;-1.03;92.13574;97507.37;;;;
2020/01/20 01:08:15;;;;;;;29;14.95;;;;;;;-0.82;92.23242;97509.36;;;;
2020/01/20 01:09:17;;;;;;;29;14.95;;;;;;;-0.82;92.23242;97509.36;;;;
2020/01/20 01:10:23;;;;;;;29;14.95;;;;;;;-0.82;92.23242;97509.36;;;;
2020/01/20 01:11:24;;;;;;;29;14.95;;;;;;;-0.82;92.23242;97509.36;;;;
2020/01/20 01:12:27;;;;;;;29;14.95;;;;;;;-0.82;92.23242;97509.36;;;;
2020/01/20 01:13:29;;;;;;;29;14.95;;;;;;;-0.82;92.23242;97509.36;;;;
2020/01/20 01:14:29;;;;;;;29;14.95;;;;;;;-0.82;92.23242;97509.36;;;;
2020/01/20 01:15:31;;;;;;;29;14.95;;;;;;;-0.82;92.23242;97509.36;;;;
2020/01/20 01:16:32;;;;;;;29;14.95;;;;;;;-0.82;92.23242;97509.36;;;;
2020/01/20 01:17:44;;;;;;;29;14.95;;;;;;;-0.82;92.23242;97509.36;;;;
2020/01/20 01:19:22;;;;;;;26.55;14.8;;;;;;;-0.73;92.24121;97513.53;;;;
2020/01/20 01:22:27;;;;;;;26.55;14.8;;;;;;;-0.73;92.24121;97513.53;;;;
2020/01/20 01:23:30;;;;;;;26.55;14.8;;;;;;;-0.73;92.24121;97513.53;;;;
2020/01/20 01:24:31;;;;;;;26.55;14.8;;;;;;;-0.73;92.24121;97513.53;;;;
2020/01/20 01:25:31;;;;;;;26.55;14.8;;;;;;;-0.73;92.24121;97513.53;;;;
2020/01/20 01:26:32;;;;;;;26.55;14.8;;;;;;;-0.73;92.24121;97513.53;;;;
2020/01/20 01:27:32;;;;;;;26.55;14.8;;;;;;;-0.73;92.24121;97513.53;;;;
2020/01/20 01:28:33;;;;;;;28.75;15.8;;;;;;;-0.66;92.42285;97519.17;;;;
2020/01/20 01:29:53;;;;;;;28.75;15.8;;;;;;;-0.66;92.42285;97519.17;;;;
2020/01/20 01:30:55;;;;;;;28.75;15.8;;;;;;;-0.66;92.42285;97519.17;;;;
2020/01/20 01:31:56;;;;;;;28.75;15.8;;;;;;;-0.66;92.42285;97519.17;;;;
2020/01/20 01:32:56;;;;;;;28.75;15.8;;;;;;;-0.66;92.42285;97519.17;;;;
2020/01/20 01:33:59;;;;;;;28.75;15.8;;;;;;;-0.66;92.42285;97519.17;;;;
2020/01/20 01:34:59;;;;;;;28.75;15.8;;;;;;;-0.66;92.42285;97519.17;;;;
2020/01/20 01:36:00;;;;;;;28.75;15.8;;;;;;;-0.66;92.42285;97519.17;;;;
2020/01/20 01:37:00;;;;;;;28.75;15.8;;;;;;;-0.66;92.42285;97519.17;;;;
2020/01/20 01:38:03;;;;;;;28.75;15.8;;;;;;;-0.66;92.42285;97519.17;;;;
2020/01/20 01:39:04;;;;;;;28.75;15.8;;;;;;;-0.66;92.42285;97519.17;;;;
2020/01/20 01:40:30;;;;;;;27.7;15.3;;;;;;;-0.78;92.31348;97514.77;;;;
2020/01/20 01:41:31;;;;;;;27.7;15.3;;;;;;;-0.78;92.31348;97514.77;;;;
2020/01/20 01:43:40;;;;;;;27.7;15.3;;;;;;;-0.78;92.31348;97514.77;;;;
2020/01/20 01:44:41;;;;;;;27.7;15.3;;;;;;;-0.78;92.31348;97514.77;;;;
2020/01/20 01:45:59;;;;;;;27.7;15.3;;;;;;;-0.78;92.31348;97514.77;;;;
2020/01/20 01:47:08;;;;;;;27.7;15.3;;;;;;;-0.78;92.31348;97514.77;;;;
2020/01/20 01:48:30;;;;;;;27.7;15.3;;;;;;;-0.78;92.31348;97514.77;;;;
2020/01/20 01:49:37;;;;;;;27.7;15.3;;;;;;;-0.78;92.31348;97514.77;;;;
2020/01/20 01:50:50;;;;;;;29.20001;16.05;;;;;;;-0.98;92.28125;97519.34;;;;
2020/01/20 01:57:05;;;;;;;29.20001;16.05;;;;;;;-0.98;92.28125;97519.34;;;;
2020/01/20 01:58:07;;;;;;;29.20001;16.05;;;;;;;-0.98;92.28125;97519.34;;;;
2020/01/20 01:59:08;;;;;;;29.20001;16.05;;;;;;;-0.98;92.28125;97519.34;;;;
2020/01/20 02:00:08;;;;;;;29.20001;16.05;;;;;;;-0.98;92.28125;97519.34;;;;
2020/01/20 02:01:19;;;;;;;30.7;16.7;;;;;;;-1.38;92.53516;97508.14;;;;
2020/01/20 02:02:22;;;;;;;30.7;16.7;;;;;;;-1.38;92.53516;97508.14;;;;
2020/01/20 02:03:22;;;;;;;30.7;16.7;;;;;;;-1.38;92.53516;97508.14;;;;
2020/01/20 02:04:29;;;;;;;30.7;16.7;;;;;;;-1.38;92.53516;97508.14;;;;
2020/01/20 02:05:30;;;;;;;30.7;16.7;;;;;;;-1.38;92.53516;97508.14;;;;
2020/01/20 02:06:45;;;;;;;30.7;16.7;;;;;;;-1.38;92.53516;97508.14;;;;
2020/01/20 02:07:45;;;;;;;30.7;16.7;;;;;;;-1.38;92.53516;97508.14;;;;
2020/01/20 02:08:46;;;;;;;30.7;16.7;;;;;;;-1.38;92.53516;97508.14;;;;
2020/01/20 02:09:48;;;;;;;30.7;16.7;;;;;;;-1.38;92.53516;97508.14;;;;
2020/01/20 02:10:50;;;;;;;30.7;16.7;;;;;;;-1.38;92.53516;97508.14;;;;
2020/01/20 02:11:51;;;;;;;37.3;18.25;;;;;;;-1.39;93.20703;97512.61;;;;
2020/01/20 02:12:51;;;;;;;37.3;18.25;;;;;;;-1.39;93.20703;97512.61;;;;
2020/01/20 02:13:52;;;;;;;37.3;18.25;;;;;;;-1.39;93.20703;97512.61;;;;
2020/01/20 02:14:53;;;;;;;37.3;18.25;;;;;;;-1.39;93.20703;97512.61;;;;
2020/01/20 02:15:53;;;;;;;37.3;18.25;;;;;;;-1.39;93.20703;97512.61;;;;
2020/01/20 02:16:55;;;;;;;37.3;18.25;;;;;;;-1.39;93.20703;97512.61;;;;
2020/01/20 02:17:56;;;;;;;37.3;18.25;;;;;;;-1.39;93.20703;97512.61;;;;
2020/01/20 02:18:56;;;;;;;37.3;18.25;;;;;;;-1.39;93.20703;97512.61;;;;
2020/01/20 02:19:56;;;;;;;37.3;18.25;;;;;;;-1.39;93.20703;97512.61;;;;
2020/01/20 02:20:57;;;;;;;37.3;18.25;;;;;;;-1.39;93.20703;97512.61;;;;
2020/01/20 02:22:00;;;;;;;40.45;19.25;;;;;;;-1.18;93.15723;97513.76;;;;
2020/01/20 02:27:00;;;;;;;40.45;19.25;;;;;;;-1.18;93.15723;97513.76;;;;
2020/01/20 02:32:00;;;;;;;40.45;19.25;;;;;;;-1.18;93.15723;97513.76;;;;
2020/01/20 02:37:01;;;;;;;38.64999;19.55;;;;;;;-0.93;93.18164;97497.78;;;;
2020/01/20 02:42:01;;;;;;;38.64999;19.55;;;;;;;-0.93;93.18164;97497.78;;;;
2020/01/20 02:47:02;;;;;;;37.55;20;;;;;;;-0.8;92.95215;97514.03;;;;
2020/01/20 02:52:02;;;;;;;37.55;20;;;;;;;-0.8;92.95215;97514.03;;;;
2020/01/20 02:57:02;;;;;;;41.4;20.1;;;;;;;-0.6;93.08789;97509.91;;;;
2020/01/20 03:02:03;;;;;;;41.4;20.1;;;;;;;-0.6;93.08789;97509.91;;;;
2020/01/20 03:07:03;;;;;;;37.55;19.5;;;;;;;-0.44;93.09375;97501.18;;;;
2020/01/20 03:12:03;;;;;;;37.55;19.5;;;;;;;-0.44;93.09375;97501.18;;;;
2020/01/20 03:17:04;;;;;;;37;18.85;;;;;;;-0.24;93.26953;97490.83;;;;
2020/01/20 03:22:04;;;;;;;37;18.85;;;;;;;-0.24;93.26953;97490.83;;;;
2020/01/20 03:27:05;;;;;;;34.3;18.5;;;;;;;-0.15;93.24121;97500.27;;;;
2020/01/20 03:32:09;;;;;;;34.3;18.5;;;;;;;-0.15;93.24121;97500.27;;;;
2020/01/20 03:37:52;;;;;;;30.15;17.9;;;;;;;-0.05;93.41699;97495.09;;;;
2020/01/20 03:42:54;;;;;;;30.15;17.9;;;;;;;-0.05;93.41699;97495.09;;;;
2020/01/20 03:47:54;;;;;;;32.95;18.25;;;;;;;-0.07;93.35059;97512.47;;;;
2020/01/20 03:52:55;;;;;;;32.95;18.25;;;;;;;-0.07;93.35059;97512.47;;;;
2020/01/20 03:57:55;;;;;;;34.45001;18.5;;;;;;;0.04;93.70508;97499.7;;;;
2020/01/20 04:02:56;;;;;;;34.45001;18.5;;;;;;;0.04;93.70508;97499.7;;;;
2020/01/20 04:07:56;;;;;;;31.1;17.5;;;;;;;0.05;93.53125;97506.29;;;;
2020/01/20 04:12:56;;;;;;;31.1;17.5;;;;;;;0.05;93.53125;97506.29;;;;
2020/01/20 04:17:57;;;;;;;31.1;17.5;;;;;;;0.05;93.53125;97506.29;;;;
2020/01/20 04:22:57;;;;;;;31.8;17.25;;;;;;;0.08;93.65137;97503.39;;;;
2020/01/20 04:27:57;;;;;;;31.8;17.25;;;;;;;0.08;93.65137;97503.39;;;;
2020/01/20 04:32:58;;;;;;;31;17.3;;;;;;;0.04;93.81934;97504.19;;;;
2020/01/20 04:37:58;;;;;;;31;17.3;;;;;;;0.04;93.81934;97504.19;;;;
2020/01/20 04:43:00;;;;;;;31.1;16.9;;;;;;;0.04;94.02734;97492.16;;;;
2020/01/20 04:48:01;;;;;;;31.1;16.9;;;;;;;0.04;94.02734;97492.16;;;;
2020/01/20 04:53:05;;;;;;;29.15;15.95;;;;;;;-0.32;93.92773;97494.12;;;;
2020/01/20 04:58:06;;;;;;;29.15;15.95;;;;;;;-0.32;93.92773;97494.12;;;;
2020/01/20 05:03:07;;;;;;;28.5;16.65;;;;;;;-0.68;94.53027;97528.19;;;;
2020/01/20 05:08:07;;;;;;;28.5;16.65;;;;;;;-0.68;94.53027;97528.19;;;;
2020/01/20 05:13:07;;;;;;;32.8;18.25;;;;;;;-0.74;94.76855;97548.97;;;;
2020/01/20 05:18:08;;;;;;;32.8;18.25;;;;;;;-0.74;94.76855;97548.97;;;;
2020/01/20 05:23:29;;;;;;;30.75;17.1;;;;;;;-0.63;94.84375;97564.09;;;;
2020/01/20 05:28:31;;;;;;;30.75;17.1;;;;;;;-0.63;94.84375;97564.09;;;;
2020/01/20 05:33:31;;;;;;;32.8;17.3;;;;;;;-0.58;94.66992;97571.17;;;;
2020/01/20 05:38:31;;;;;;;32.8;17.3;;;;;;;-0.58;94.66992;97571.17;;;;
2020/01/20 05:43:32;;;;;;;29.05;16.25;;;;;;;-0.44;94.75098;97577.7;;;;
2020/01/20 05:48:32;;;;;;;29.05;16.25;;;;;;;-0.44;94.75098;97577.7;;;;
2020/01/20 05:53:32;;;;;;;29.05;16.25;;;;;;;-0.44;94.75098;97577.7;;;;
2020/01/20 05:58:33;;;;;;;29.75;16.75;;;;;;;-0.38;94.62793;97599.81;;;;
2020/01/20 06:03:33;;;;;;;29.75;16.75;;;;;;;-0.38;94.62793;97599.81;;;;
2020/01/20 06:08:34;;;;;;;28.5;15.9;;;;;;;-0.29;94.66211;97618.55;;;;
2020/01/20 06:13:34;;;;;;;28.5;15.9;;;;;;;-0.29;94.66211;97618.55;;;;
2020/01/20 06:18:34;;;;;;;32.5;16.9;;;;;;;-0.28;94.5166;97618.97;;;;
2020/01/20 06:23:34;;;;;;;32.5;16.9;;;;;;;-0.28;94.5166;97618.97;;;;
2020/01/20 06:28:35;;;;;;;31.7;16.9;;;;;;;-0.24;94.53516;97628.41;;;;
2020/01/20 06:33:35;;;;;;;31.7;16.9;;;;;;;-0.24;94.53516;97628.41;;;;
2020/01/20 06:38:35;;;;;;;31.95;17;;;;;;;-0.31;94.64746;97639.07;;;;
2020/01/20 06:43:36;;;;;;;31.95;17;;;;;;;-0.31;94.64746;97639.07;;;;
2020/01/20 06:49:46;;;;;;;36;18;;;;;;;-0.24;94.74512;97656.23;;;;
2020/01/20 06:50:54;;;;;;;36;18;;;;;;;-0.24;94.74512;97656.23;;;;
2020/01/20 06:52:05;;;;;;;36;18;;;;;;;-0.24;94.74512;97656.23;;;;
2020/01/20 06:54:04;;;;;;;36;18;;;;;;;-0.24;94.74512;97656.23;;;;
2020/01/20 06:55:21;;;;;;;36;18;;;;;;;-0.24;94.74512;97656.23;;;;
2020/01/20 06:56:22;;;;;;;36;18;;;;;;;-0.24;94.74512;97656.23;;;;
2020/01/20 06:57:24;;;;;;;36;18;;;;;;;-0.24;94.74512;97656.23;;;;
2020/01/20 06:58:25;;;;;;;36;18;;;;;;;-0.24;94.74512;97656.23;;;;
2020/01/20 06:59:26;;;;;;;36;18;;;;;;;-0.24;94.74512;97656.23;;;;
2020/01/20 07:00:26;;;;;;;36;18;;;;;;;-0.24;94.74512;97656.23;;;;
2020/01/20 07:01:26;;;;;;;36;18;;;;;;;-0.24;94.74512;97656.23;;;;
2020/01/20 07:02:27;;;;;;;36;18;;;;;;;-0.24;94.74512;97656.23;;;;
2020/01/20 07:03:27;;;;;;;36;18;;;;;;;-0.24;94.74512;97656.23;;;;
2020/01/20 07:04:28;;;;;;;36;18;;;;;;;-0.24;94.74512;97656.23;;;;
2020/01/20 07:05:28;;;;;;;36;18;;;;;;;-0.24;94.74512;97656.23;;;;
2020/01/20 07:06:29;;;;;;;36;18;;;;;;;-0.24;94.74512;97656.23;;;;
2020/01/20 07:07:29;;;;;;;36;18;;;;;;;-0.24;94.74512;97656.23;;;;
2020/01/20 07:08:30;;;;;;;37.09999;18.75;;;;;;;0.03;94.5957;97667.96;;;;
2020/01/20 07:09:30;;;;;;;37.09999;18.75;;;;;;;0.03;94.5957;97667.96;;;;
2020/01/20 07:10:30;;;;;;;37.09999;18.75;;;;;;;0.03;94.5957;97667.96;;;;
2020/01/20 07:11:31;;;;;;;37.09999;18.75;;;;;;;0.03;94.5957;97667.96;;;;
2020/01/20 07:12:31;;;;;;;37.09999;18.75;;;;;;;0.03;94.5957;97667.96;;;;
2020/01/20 07:13:32;;;;;;;37.09999;18.75;;;;;;;0.03;94.5957;97667.96;;;;
2020/01/20 07:14:32;;;;;;;37.09999;18.75;;;;;;;0.03;94.5957;97667.96;;;;
2020/01/20 07:15:33;;;;;;;37.09999;18.75;;;;;;;0.03;94.5957;97667.96;;;;
2020/01/20 07:16:33;;;;;;;37.09999;18.75;;;;;;;0.03;94.5957;97667.96;;;;
2020/01/20 07:17:34;;;;;;;37.09999;18.75;;;;;;;0.03;94.5957;97667.96;;;;
2020/01/20 07:18:34;;;;;;;37.09999;18.75;;;;;;;0.03;94.5957;97667.96;;;;
2020/01/20 07:19:34;;;;;;;36.5;19.35;;;;;;;0.11;94.70605;97683.34;;;;
2020/01/20 07:20:35;;;;;;;36.5;19.35;;;;;;;0.11;94.70605;97683.34;;;;
2020/01/20 07:21:35;;;;;;;36.5;19.35;;;;;;;0.11;94.70605;97683.34;;;;
2020/01/20 07:23:44;;;;;;;36.5;19.35;;;;;;;0.11;94.70605;97683.34;;;;
2020/01/20 07:24:45;;;;;;;36.5;19.35;;;;;;;0.11;94.70605;97683.34;;;;
2020/01/20 07:25:46;;;;;;;36.5;19.35;;;;;;;0.11;94.70605;97683.34;;;;
2020/01/20 07:26:46;;;;;;;36.5;19.35;;;;;;;0.11;94.70605;97683.34;;;;
2020/01/20 07:27:47;;;;;;;36.5;19.35;;;;;;;0.11;94.70605;97683.34;;;;
2020/01/20 07:28:47;;;;;;;36.5;19.35;;;;;;;0.11;94.70605;97683.34;;;;
2020/01/20 07:29:48;;;;;;;34.25;18.5;;;;;;;0.28;95.01367;97693.55;;;;
2020/01/20 07:30:48;;;;;;;34.25;18.5;;;;;;;0.28;95.01367;97693.55;;;;
2020/01/20 07:31:49;;;;;;;34.25;18.5;;;;;;;0.28;95.01367;97693.55;;;;
2020/01/20 07:32:49;;;;;;;34.25;18.5;;;;;;;0.28;95.01367;97693.55;;;;
2020/01/20 07:33:50;;;;;;;34.25;18.5;;;;;;;0.28;95.01367;97693.55;;;;
2020/01/20 07:34:50;;;;;;;34.25;18.5;;;;;;;0.28;95.01367;97693.55;;;;
2020/01/20 07:35:51;;;;;;;34.25;18.5;;;;;;;0.28;95.01367;97693.55;;;;
2020/01/20 07:36:51;;;;;;;34.25;18.5;;;;;;;0.28;95.01367;97693.55;;;;
2020/01/20 07:37:52;;;;;;;34.25;18.5;;;;;;;0.28;95.01367;97693.55;;;;
2020/01/20 07:38:52;;;;;;;34.25;18.5;;;;;;;0.28;95.01367;97693.55;;;;
2020/01/20 07:39:56;;;;;;;34.25;18.5;;;;;;;0.28;95.01367;97693.55;;;;
2020/01/20 07:40:56;;;;;;;33.1;18.2;;;;;;;0.36;94.81445;97702.62;;;;
2020/01/20 07:41:57;;;;;;;33.1;18.2;;;;;;;0.36;94.81445;97702.62;;;;
2020/01/20 07:42:57;;;;;;;33.1;18.2;;;;;;;0.36;94.81445;97702.62;;;;
2020/01/20 07:43:57;;;;;;;33.1;18.2;;;;;;;0.36;94.81445;97702.62;;;;
2020/01/20 07:44:58;;;;;;;33.1;18.2;;;;;;;0.36;94.81445;97702.62;;;;
2020/01/20 07:45:58;;;;;;;33.1;18.2;;;;;;;0.36;94.81445;97702.62;;;;
2020/01/20 07:46:59;;;;;;;33.1;18.2;;;;;;;0.36;94.81445;97702.62;;;;
2020/01/20 07:47:59;;;;;;;33.1;18.2;;;;;;;0.36;94.81445;97702.62;;;;
2020/01/20 07:49:00;;;;;;;33.1;18.2;;;;;;;0.36;94.81445;97702.62;;;;
2020/01/20 07:50:00;;;;;;;33.1;18.2;;;;;;;0.36;94.81445;97702.62;;;;
2020/01/20 07:51:01;;;;;;;32.45;18.35;;;;;;;0.47;94.92188;97701.78;;;;
2020/01/20 07:52:01;;;;;;;32.45;18.35;;;;;;;0.47;94.92188;97701.78;;;;
2020/01/20 07:53:02;;;;;;;32.45;18.35;;;;;;;0.47;94.92188;97701.78;;;;
2020/01/20 07:54:02;;;;;;;32.45;18.35;;;;;;;0.47;94.92188;97701.78;;;;
2020/01/20 07:55:03;;;;;;;32.45;18.35;;;;;;;0.47;94.92188;97701.78;;;;
2020/01/20 07:56:08;;;;;;;32.45;18.35;;;;;;;0.47;94.92188;97701.78;;;;
2020/01/20 07:57:13;;;;;;;32.45;18.35;;;;;;;0.47;94.92188;97701.78;;;;
2020/01/20 07:59:25;;;;;;;32.45;18.35;;;;;;;0.47;94.92188;97701.78;;;;
2020/01/20 08:05:43;;;;;;;31.45;18.15;;;;;;;0.54;94.88477;97703.02;;;;
2020/01/20 08:07:54;;;;;;;31.45;18.15;;;;;;;0.54;94.88477;97703.02;;;;
2020/01/20 08:08:55;;;;;;;31.45;18.15;;;;;;;0.54;94.88477;97703.02;;;;
2020/01/20 08:09:55;;;;;;;31.45;18.15;;;;;;;0.54;94.88477;97703.02;;;;
2020/01/20 08:10:56;;;;;;;31.45;18.15;;;;;;;0.54;94.88477;97703.02;;;;
2020/01/20 08:11:56;;;;;;;31.45;18.15;;;;;;;0.54;94.88477;97703.02;;;;
2020/01/20 08:12:57;;;;;;;30.2;17.7;;;;;;;0.78;94.92871;97692.77;;;;
2020/01/20 08:13:57;;;;;;;30.2;17.7;;;;;;;0.78;94.92871;97692.77;;;;
2020/01/20 08:14:58;;;;;;;30.2;17.7;;;;;;;0.78;94.92871;97692.77;;;;
2020/01/20 08:15:58;;;;;;;30.2;17.7;;;;;;;0.78;94.92871;97692.77;;;;
2020/01/20 08:16:59;;;;;;;30.2;17.7;;;;;;;0.78;94.92871;97692.77;;;;
2020/01/20 08:17:59;;;;;;;30.2;17.7;;;;;;;0.78;94.92871;97692.77;;;;
2020/01/20 08:19:00;;;;;;;30.2;17.7;;;;;;;0.78;94.92871;97692.77;;;;
2020/01/20 08:20:00;;;;;;;30.2;17.7;;;;;;;0.78;94.92871;97692.77;;;;
2020/01/20 08:21:01;;;;;;;30.2;17.7;;;;;;;0.78;94.92871;97692.77;;;;
2020/01/20 08:22:01;;;;;;;30.2;17.7;;;;;;;0.78;94.92871;97692.77;;;;
2020/01/20 08:23:01;;;;;;;27.55;16.2;;;;;;;1.12;94.45313;97695.42;;;;
2020/01/20 08:24:02;;;;;;;27.55;16.2;;;;;;;1.12;94.45313;97695.42;;;;
2020/01/20 08:25:02;;;;;;;27.55;16.2;;;;;;;1.12;94.45313;97695.42;;;;
2020/01/20 08:26:03;;;;;;;27.55;16.2;;;;;;;1.12;94.45313;97695.42;;;;
2020/01/20 08:27:05;;;;;;;27.55;16.2;;;;;;;1.12;94.45313;97695.42;;;;
2020/01/20 08:28:10;;;;;;;27.55;16.2;;;;;;;1.12;94.45313;97695.42;;;;
2020/01/20 08:29:11;;;;;;;27.55;16.2;;;;;;;1.12;94.45313;97695.42;;;;
2020/01/20 08:30:11;;;;;;;27.55;16.2;;;;;;;1.12;94.45313;97695.42;;;;
2020/01/20 08:31:12;;;;;;;27.55;16.2;;;;;;;1.12;94.45313;97695.42;;;;
2020/01/20 08:33:17;;;;;;;27.55;16.2;;;;;;;1.12;94.45313;97695.42;;;;
2020/01/20 08:34:18;;;;;;;27.55;16.1;;;;;;;1.58;93.71875;97715.3;;;;
2020/01/20 08:35:23;;;;;;;27.55;16.1;;;;;;;1.58;93.71875;97715.3;;;;
2020/01/20 08:36:24;;;;;;;27.55;16.1;;;;;;;1.58;93.71875;97715.3;;;;
2020/01/20 08:37:24;;;;;;;27.55;16.1;;;;;;;1.58;93.71875;97715.3;;;;
2020/01/20 08:38:24;;;;;;;27.55;16.1;;;;;;;1.58;93.71875;97715.3;;;;
2020/01/20 08:39:25;;;;;;;27.55;16.1;;;;;;;1.58;93.71875;97715.3;;;;
2020/01/20 08:40:25;;;;;;;27.55;16.1;;;;;;;1.58;93.71875;97715.3;;;;
2020/01/20 08:41:26;;;;;;;27.55;16.1;;;;;;;1.58;93.71875;97715.3;;;;
2020/01/20 08:42:26;;;;;;;27.55;16.1;;;;;;;1.58;93.71875;97715.3;;;;
2020/01/20 08:43:27;;;;;;;27.55;16.1;;;;;;;1.58;93.71875;97715.3;;;;
2020/01/20 08:44:27;;;;;;;24.8;16.05;;;;;;;1.81;93.34375;97715.22;;;;
2020/01/20 08:45:28;;;;;;;24.8;16.05;;;;;;;1.81;93.34375;97715.22;;;;
2020/01/20 08:46:28;;;;;;;24.8;16.05;;;;;;;1.81;93.34375;97715.22;;;;
2020/01/20 08:47:29;;;;;;;24.8;16.05;;;;;;;1.81;93.34375;97715.22;;;;
2020/01/20 08:48:29;;;;;;;24.8;16.05;;;;;;;1.81;93.34375;97715.22;;;;
2020/01/20 08:49:30;;;;;;;24.8;16.05;;;;;;;1.81;93.34375;97715.22;;;;
2020/01/20 08:50:31;;;;;;;24.8;16.05;;;;;;;1.81;93.34375;97715.22;;;;
2020/01/20 08:51:32;;;;;;;24.8;16.05;;;;;;;1.81;93.34375;97715.22;;;;
2020/01/20 08:52:32;;;;;;;24.8;16.05;;;;;;;1.81;93.34375;97715.22;;;;
2020/01/20 08:53:33;;;;;;;24.8;16.05;;;;;;;1.81;93.34375;97715.22;;;;
2020/01/20 08:54:33;;;;;;;24.8;16.05;;;;;;;1.81;93.34375;97715.22;;;;
2020/01/20 08:55:35;;;;;;;30.65;18.3;;;;;;;2.26;92.60449;97739.96;;;;
2020/01/20 08:56:36;;;;;;;30.65;18.3;;;;;;;2.26;92.60449;97739.96;;;;
2020/01/20 08:57:36;;;;;;;30.65;18.3;;;;;;;2.26;92.60449;97739.96;;;;
2020/01/20 08:58:40;;;;;;;30.65;18.3;;;;;;;2.26;92.60449;97739.96;;;;
2020/01/20 08:59:42;;;;;;;30.65;18.3;;;;;;;2.26;92.60449;97739.96;;;;
2020/01/20 09:01:01;;;;;;;30.65;18.3;;;;;;;2.26;92.60449;97739.96;;;;
2020/01/20 09:02:25;;;;;;;30.65;18.3;;;;;;;2.26;92.60449;97739.96;;;;
2020/01/20 09:04:39;;;;;;;30.65;18.3;;;;;;;2.26;92.60449;97739.96;;;;
2020/01/20 09:05:41;;;;;;;29.9;18;;;;;;;2.17;92.82617;97756.65;;;;
2020/01/20 09:06:45;;;;;;;29.9;18;;;;;;;2.17;92.82617;97756.65;;;;
2020/01/20 09:07:46;;;;;;;29.9;18;;;;;;;2.17;92.82617;97756.65;;;;
2020/01/20 09:08:47;;;;;;;29.9;18;;;;;;;2.17;92.82617;97756.65;;;;
2020/01/20 09:09:47;;;;;;;29.9;18;;;;;;;2.17;92.82617;97756.65;;;;
2020/01/20 09:10:51;;;;;;;29.9;18;;;;;;;2.17;92.82617;97756.65;;;;
2020/01/20 09:11:51;;;;;;;29.9;18;;;;;;;2.17;92.82617;97756.65;;;;
2020/01/20 09:12:52;;;;;;;29.9;18;;;;;;;2.17;92.82617;97756.65;;;;
2020/01/20 09:13:53;;;;;;;29.9;18;;;;;;;2.17;92.82617;97756.65;;;;
2020/01/20 09:14:53;;;;;;;29.9;18;;;;;;;2.17;92.82617;97756.65;;;;
2020/01/20 09:15:55;;;;;;;20.1;12.85;;;;;;;2.22;92.89941;97765.16;;;;
2020/01/20 09:16:55;;;;;;;20.1;12.85;;;;;;;2.22;92.89941;97765.16;;;;
2020/01/20 09:17:56;;;;;;;20.1;12.85;;;;;;;2.22;92.89941;97765.16;;;;
2020/01/20 09:18:56;;;;;;;20.1;12.85;;;;;;;2.22;92.89941;97765.16;;;;
2020/01/20 09:19:57;;;;;;;20.1;12.85;;;;;;;2.22;92.89941;97765.16;;;;
2020/01/20 09:20:57;;;;;;;20.1;12.85;;;;;;;2.22;92.89941;97765.16;;;;
2020/01/20 09:21:58;;;;;;;20.1;12.85;;;;;;;2.22;92.89941;97765.16;;;;
2020/01/20 09:22:58;;;;;;;20.1;12.85;;;;;;;2.22;92.89941;97765.16;;;;
2020/01/20 09:23:58;;;;;;;20.1;12.85;;;;;;;2.22;92.89941;97765.16;;;;
2020/01/20 09:24:59;;;;;;;20.1;12.85;;;;;;;2.22;92.89941;97765.16;;;;
2020/01/20 09:25:59;;;;;;;20.1;12.85;;;;;;;2.22;92.89941;97765.16;;;;
2020/01/20 09:27:00;;;;;;;17.1;11.4;;;;;;;2.14;92.9248;97756.87;;;;
2020/01/20 09:28:00;;;;;;;17.1;11.4;;;;;;;2.14;92.9248;97756.87;;;;
2020/01/20 09:29:01;;;;;;;17.1;11.4;;;;;;;2.14;92.9248;97756.87;;;;
2020/01/20 09:30:01;;;;;;;17.1;11.4;;;;;;;2.14;92.9248;97756.87;;;;
2020/01/20 09:31:07;;;;;;;17.1;11.4;;;;;;;2.14;92.9248;97756.87;;;;
2020/01/20 09:32:07;;;;;;;17.1;11.4;;;;;;;2.14;92.9248;97756.87;;;;
2020/01/20 09:33:08;;;;;;;17.1;11.4;;;;;;;2.14;92.9248;97756.87;;;;
2020/01/20 09:34:08;;;;;;;17.1;11.4;;;;;;;2.14;92.9248;97756.87;;;;
2020/01/20 09:35:12;;;;;;;17.1;11.4;;;;;;;2.14;92.9248;97756.87;;;;
2020/01/20 09:36:13;;;;;;;17.1;11.4;;;;;;;2.14;92.9248;97756.87;;;;
2020/01/20 09:37:13;;;;;;;24.35;14.5;;;;;;;2.19;92.88281;97779.6;;;;
2020/01/20 09:38:14;;;;;;;24.35;14.5;;;;;;;2.19;92.88281;97779.6;;;;
2020/01/20 09:39:14;;;;;;;24.35;14.5;;;;;;;2.19;92.88281;97779.6;;;;
2020/01/20 09:40:15;;;;;;;24.35;14.5;;;;;;;2.19;92.88281;97779.6;;;;
2020/01/20 09:41:16;;;;;;;24.35;14.5;;;;;;;2.19;92.88281;97779.6;;;;
2020/01/20 09:42:16;;;;;;;24.35;14.5;;;;;;;2.19;92.88281;97779.6;;;;
2020/01/20 09:43:17;;;;;;;24.35;14.5;;;;;;;2.19;92.88281;97779.6;;;;
2020/01/20 09:44:17;;;;;;;24.35;14.5;;;;;;;2.19;92.88281;97779.6;;;;
2020/01/20 09:45:18;;;;;;;24.35;14.5;;;;;;;2.19;92.88281;97779.6;;;;
2020/01/20 09:46:18;;;;;;;24.35;14.5;;;;;;;2.19;92.88281;97779.6;;;;
2020/01/20 09:47:18;;;;;;;24.35;14.5;;;;;;;2.19;92.88281;97779.6;;;;
2020/01/20 09:48:19;;;;;;;25.55;15.1;;;;;;;2.06;92.85449;97774.45;;;;